Terminal Aerodrome Forecast
Issued by NWS

Home | Current Version | Previous Version | Graphics & Text | Print | Product List | Glossary On
Versions: 1 2 3 4 5 6 7 8 9 10 11 12 13 14 15 16 17 18 19 20 21
000
FTUS43 KBIS 281731
TAFJMS
TAF
KJMS 281731Z 2818/2918 01008KT P6SM SCT010 OVC015
     FM281900 36007KT P6SM OVC060
     FM282000 01006KT P6SM VCTS BKN040CB
     FM290100 33005KT P6SM BKN080
     FM290800 30010KT P6SM FEW100=

USA.gov is the U.S. government's official web portal to all federal, state and local government web resources and services.